createdAt,value
2018-03-25T00:00:57.149Z,28.70
2018-03-25T00:03:23.390Z,29.77
2018-03-25T00:05:49.934Z,28.40
2018-03-25T00:08:16.224Z,26.67
2018-03-25T00:10:42.441Z,31.87
2018-03-25T00:13:08.667Z,31.60
2018-03-25T00:15:34.886Z,30.30
2018-03-25T00:18:01.838Z,30.50
2018-03-25T00:20:28.902Z,29.87
2018-03-25T00:22:55.508Z,27.07
2018-03-25T00:25:21.777Z,32.33
2018-03-25T00:27:47.987Z,30.40
2018-03-25T00:30:14.209Z,25.40
2018-03-25T00:32:41.200Z,27.63
2018-03-25T00:35:07.428Z,29.20
2018-03-25T00:37:33.683Z,25.20
2018-03-25T00:39:59.909Z,29.20
2018-03-25T00:42:26.310Z,27.93
2018-03-25T00:44:52.537Z,28.17
2018-03-25T00:47:18.816Z,24.77
2018-03-25T00:49:45.813Z,28.20
2018-03-25T00:52:12.282Z,24.73
2018-03-25T00:54:38.518Z,28.10
2018-03-25T00:57:05.162Z,24.07
2018-03-25T00:59:31.398Z,23.57
2018-03-25T01:01:57.645Z,23.77
2018-03-25T01:04:24.877Z,23.53
2018-03-25T01:06:51.894Z,29.10
2018-03-25T01:09:18.342Z,22.70
2018-03-25T01:11:44.654Z,21.67
2018-03-25T01:14:10.886Z,19.73
2018-03-25T01:16:37.153Z,19.50
2018-03-25T01:19:04.120Z,19.17
2018-03-25T01:21:30.342Z,20.13
2018-03-25T01:23:57.394Z,23.67
2018-03-25T01:26:24.355Z,21.93
2018-03-25T01:28:50.568Z,20.20
2018-03-25T01:31:16.808Z,17.33
2018-03-25T01:33:43.070Z,22.03
2018-03-25T01:36:09.327Z,19.30
2018-03-25T01:38:35.564Z,19.73
2018-03-25T01:41:02.578Z,22.50
2018-03-25T01:43:28.830Z,20.07
2018-03-25T01:45:55.066Z,20.90
2018-03-25T01:48:21.330Z,23.83
2018-03-25T01:50:47.538Z,19.90
2018-03-25T01:53:13.781Z,19.80
2018-03-25T01:55:39.973Z,22.03
2018-03-25T01:58:06.265Z,20.53
2018-03-25T02:00:32.475Z,20.30
2018-03-25T02:02:58.840Z,20.73
2018-03-25T02:05:31.979Z,19.37
2018-03-25T02:07:58.583Z,24.10
2018-03-25T02:10:24.929Z,19.77
2018-03-25T02:12:51.184Z,21.10
2018-03-25T02:15:18.158Z,18.67
2018-03-25T02:17:44.403Z,19.93
2018-03-25T02:20:10.634Z,17.90
2018-03-25T02:22:36.913Z,21.60
2018-03-25T02:25:03.970Z,21.67
2018-03-25T02:27:30.253Z,19.87
2018-03-25T02:29:56.563Z,20.83
2018-03-25T02:32:22.807Z,17.50
2018-03-25T02:34:49.067Z,17.80
2018-03-25T02:37:15.312Z,18.20
2018-03-25T02:39:42.282Z,20.10
2018-03-25T02:42:08.512Z,19.90
2018-03-25T02:44:34.769Z,22.10
2018-03-25T02:47:01.026Z,18.43
2018-03-25T02:49:27.265Z,18.40
2018-03-25T02:51:54.338Z,20.87
2018-03-25T02:54:20.555Z,19.37
2018-03-25T02:56:46.901Z,20.43
2018-03-25T02:59:13.151Z,17.93
2018-03-25T03:01:39.545Z,19.80
2018-03-25T03:04:06.507Z,18.70
2018-03-25T03:06:32.820Z,18.80
2018-03-25T03:08:59.791Z,20.77
2018-03-25T03:11:26.013Z,18.10
2018-03-25T03:13:52.289Z,19.30
2018-03-25T03:16:18.538Z,21.00
2018-03-25T03:18:44.795Z,20.37
2018-03-25T03:21:11.595Z,17.50
2018-03-25T03:23:38.726Z,23.33
2018-03-25T03:26:04.986Z,17.60
2018-03-25T03:28:31.286Z,21.50
2018-03-25T03:30:57.491Z,20.50
2018-03-25T03:33:23.721Z,20.17
2018-03-25T03:35:49.952Z,23.80
2018-03-25T03:38:16.170Z,18.07
2018-03-25T03:40:42.366Z,17.70
2018-03-25T03:43:08.639Z,18.27
2018-03-25T03:45:34.859Z,21.07
2018-03-25T03:48:01.102Z,20.73
2018-03-25T03:50:27.393Z,18.97
2018-03-25T03:52:54.395Z,21.20
2018-03-25T03:55:20.652Z,17.90
2018-03-25T03:57:46.894Z,17.00
2018-03-25T04:00:13.861Z,19.33
2018-03-25T04:02:40.163Z,21.20
2018-03-25T04:05:06.806Z,20.73
2018-03-25T04:07:33.113Z,20.70
2018-03-25T04:09:59.328Z,18.40
2018-03-25T04:12:25.605Z,20.20
2018-03-25T04:14:52.675Z,19.00
2018-03-25T04:17:18.889Z,19.47
2018-03-25T04:19:45.855Z,20.40
2018-03-25T04:22:12.305Z,20.17
2018-03-25T04:24:38.527Z,23.20
2018-03-25T04:27:04.748Z,20.33
2018-03-25T04:29:31.444Z,25.57
2018-03-25T04:31:57.667Z,24.70
2018-03-25T04:34:23.909Z,21.10
2018-03-25T04:36:50.157Z,19.67
2018-03-25T04:39:16.426Z,19.50
2018-03-25T04:41:42.751Z,21.73
2018-03-25T04:44:08.982Z,20.70
2018-03-25T04:46:35.263Z,22.90
2018-03-25T04:49:02.224Z,21.30
2018-03-25T04:51:28.452Z,20.20
2018-03-25T04:53:55.470Z,24.00
2018-03-25T04:56:21.692Z,22.80
2018-03-25T04:58:47.989Z,22.07
2018-03-25T05:01:14.287Z,23.80
2018-03-25T05:03:41.717Z,22.03
2018-03-25T05:06:07.931Z,22.53
2018-03-25T05:08:34.160Z,23.17
2018-03-25T05:11:00.455Z,23.20
2018-03-25T05:13:26.665Z,23.43
2018-03-25T05:15:52.932Z,22.37
2018-03-25T05:18:19.925Z,21.97
2018-03-25T05:20:47.058Z,22.70
2018-03-25T05:23:13.385Z,27.17
2018-03-25T05:25:39.610Z,23.87
2018-03-25T05:28:05.872Z,23.10
2018-03-25T05:30:32.075Z,22.10
2018-03-25T05:32:58.287Z,24.30
2018-03-25T05:35:24.541Z,26.33
2018-03-25T05:37:50.818Z,23.33
2018-03-25T05:40:17.073Z,25.83
2018-03-25T05:42:43.344Z,26.43
2018-03-25T05:45:10.299Z,23.40
2018-03-25T05:47:37.312Z,25.37
2018-03-25T05:50:03.891Z,27.90
2018-03-25T05:52:30.195Z,27.50
2018-03-25T05:54:56.371Z,27.57
2018-03-25T05:57:22.590Z,26.57
2018-03-25T05:59:48.926Z,24.83
2018-03-25T06:02:15.221Z,24.13
2018-03-25T06:04:42.270Z,24.83
2018-03-25T06:07:09.284Z,22.40
2018-03-25T06:09:35.498Z,23.23
2018-03-25T06:12:01.735Z,23.60
2018-03-25T06:14:28.001Z,23.70
2018-03-25T06:16:55.007Z,26.53
2018-03-25T06:19:21.257Z,26.13
2018-03-25T06:21:47.599Z,25.73
2018-03-25T06:24:13.893Z,24.03
2018-03-25T06:26:40.287Z,28.93
2018-03-25T06:29:07.258Z,30.10
2018-03-25T06:31:33.501Z,27.10
2018-03-25T06:33:59.707Z,25.30
2018-03-25T06:36:25.908Z,23.23
2018-03-25T06:38:52.971Z,28.33
2018-03-25T06:41:19.223Z,23.33
2018-03-25T06:43:45.458Z,26.83
2018-03-25T06:46:11.943Z,28.03
2018-03-25T06:48:38.205Z,29.90
2018-03-25T06:51:04.510Z,27.03
2018-03-25T06:53:30.790Z,27.53
2018-03-25T06:55:57.055Z,25.47
2018-03-25T06:58:23.268Z,25.83
2018-03-25T07:00:49.502Z,30.13
2018-03-25T07:03:15.727Z,25.10
2018-03-25T07:05:41.986Z,28.17
2018-03-25T07:08:08.977Z,29.87
2018-03-25T07:10:35.334Z,27.23
2018-03-25T07:13:01.554Z,25.10
2018-03-25T07:15:27.831Z,23.83
2018-03-25T07:17:54.819Z,28.80
2018-03-25T07:20:21.038Z,30.50
2018-03-25T07:22:47.253Z,24.20
2018-03-25T07:25:13.749Z,29.30
2018-03-25T07:27:40.393Z,21.97
2018-03-25T07:30:07.406Z,27.90
2018-03-25T07:32:33.763Z,29.60
2018-03-25T07:35:00.048Z,24.27
2018-03-25T07:37:26.379Z,26.40
2018-03-25T07:39:52.610Z,24.43
2018-03-25T07:42:25.679Z,28.03
2018-03-25T07:44:51.951Z,27.20
2018-03-25T07:47:18.213Z,27.97
2018-03-25T07:49:45.161Z,24.70
2018-03-25T07:52:12.504Z,21.33
2018-03-25T07:54:38.810Z,27.73
2018-03-25T07:57:05.401Z,28.60
2018-03-25T07:59:32.361Z,27.53
2018-03-25T08:01:58.585Z,30.20
2018-03-25T08:04:24.853Z,24.23
2018-03-25T08:06:51.097Z,27.77
2018-03-25T08:09:17.330Z,30.93
2018-03-25T08:11:43.549Z,25.77
2018-03-25T08:14:09.796Z,28.00
2018-03-25T08:16:36.850Z,31.17
2018-03-25T08:19:03.906Z,26.90
2018-03-25T08:21:30.897Z,28.00
2018-03-25T08:23:57.218Z,27.83
2018-03-25T08:26:23.523Z,26.40
2018-03-25T08:28:50.628Z,23.70
2018-03-25T08:31:16.861Z,24.40
2018-03-25T08:33:43.092Z,28.90
2018-03-25T08:36:09.429Z,27.40
2018-03-25T08:38:35.891Z,26.43
2018-03-25T08:41:02.862Z,22.87
2018-03-25T08:43:29.819Z,26.80
2018-03-25T08:45:56.073Z,24.97
2018-03-25T08:48:22.285Z,24.77
2018-03-25T08:50:48.502Z,29.00
2018-03-25T08:53:14.709Z,31.80
2018-03-25T08:55:40.946Z,25.03
2018-03-25T08:58:07.465Z,25.30
2018-03-25T09:00:40.693Z,25.80
2018-03-25T09:03:06.921Z,20.07
2018-03-25T09:05:33.185Z,25.63
2018-03-25T09:07:59.454Z,27.83
2018-03-25T09:10:25.726Z,22.83
2018-03-25T09:12:51.954Z,23.20
2018-03-25T09:15:18.161Z,24.43
2018-03-25T09:17:51.432Z,24.57
2018-03-25T09:20:18.531Z,24.23
2018-03-25T09:22:44.857Z,25.07
2018-03-25T09:25:12.183Z,19.80
2018-03-25T09:27:38.452Z,23.30
2018-03-25T09:30:04.811Z,24.60
2018-03-25T09:32:31.484Z,24.43
2018-03-25T09:34:57.755Z,22.87
2018-03-25T09:37:24.776Z,21.93
2018-03-25T09:39:51.008Z,21.10
2018-03-25T09:42:17.446Z,20.10
2018-03-25T09:44:43.783Z,20.27
2018-03-25T09:47:09.988Z,21.87
2018-03-25T09:49:36.298Z,21.30
2018-03-25T09:52:03.276Z,23.93
2018-03-25T09:54:29.519Z,16.70
2018-03-25T09:56:55.758Z,20.37
2018-03-25T09:59:22.022Z,20.93
2018-03-25T10:01:55.099Z,19.30
2018-03-25T10:04:21.375Z,23.10
2018-03-25T10:06:47.649Z,23.87
2018-03-25T10:09:13.905Z,20.00
2018-03-25T10:11:40.972Z,17.33
2018-03-25T10:14:07.211Z,20.43
2018-03-25T10:16:33.467Z,19.60
2018-03-25T10:18:59.951Z,18.53
2018-03-25T10:21:26.912Z,17.80
2018-03-25T10:23:53.146Z,19.77
2018-03-25T10:26:20.185Z,24.00
2018-03-25T10:28:46.389Z,18.20
2018-03-25T10:31:13.357Z,19.70
2018-03-25T10:33:42.765Z,20.47
2018-03-25T10:36:09.037Z,17.30
2018-03-25T10:38:35.447Z,18.57
2018-03-25T10:41:01.878Z,19.37
2018-03-25T10:43:28.127Z,26.33
2018-03-25T10:45:54.600Z,16.90
2018-03-25T10:48:21.563Z,22.07
2018-03-25T10:50:48.576Z,20.23
2018-03-25T10:53:14.867Z,16.90
2018-03-25T10:55:41.124Z,19.20
2018-03-25T10:58:08.321Z,21.67
2018-03-25T11:00:34.566Z,15.33
2018-03-25T11:03:01.130Z,17.30
2018-03-25T11:05:27.486Z,18.77
2018-03-25T11:07:53.778Z,14.70
2018-03-25T11:10:19.999Z,17.43
2018-03-25T11:12:46.250Z,18.57
2018-03-25T11:15:12.505Z,17.80
2018-03-25T11:17:38.787Z,20.70
2018-03-25T11:20:05.210Z,18.67
2018-03-25T11:22:31.506Z,19.10
2018-03-25T11:24:57.736Z,19.00
2018-03-25T11:27:24.731Z,19.23
2018-03-25T11:29:51.090Z,17.50
2018-03-25T11:32:17.561Z,19.20
2018-03-25T11:34:44.960Z,20.93
2018-03-25T11:37:11.176Z,20.57
2018-03-25T11:39:37.455Z,17.60
2018-03-25T11:42:03.815Z,18.00
2018-03-25T11:44:30.779Z,20.80
2018-03-25T11:46:57.029Z,16.80
2018-03-25T11:49:23.266Z,20.03
2018-03-25T11:51:49.519Z,24.77
2018-03-25T11:54:15.862Z,22.03
2018-03-25T11:56:43.261Z,20.90
2018-03-25T11:59:09.571Z,21.83
2018-03-25T12:01:36.034Z,20.53
2018-03-25T12:04:02.320Z,18.77
2018-03-25T12:06:29.276Z,20.60
2018-03-25T12:08:56.622Z,17.53
2018-03-25T12:11:22.821Z,18.03
2018-03-25T12:13:49.129Z,21.10
2018-03-25T12:16:15.344Z,21.47
2018-03-25T12:18:41.590Z,19.90
2018-03-25T12:21:07.953Z,23.47
2018-03-25T12:23:35.074Z,21.10
2018-03-25T12:26:01.327Z,19.43
2018-03-25T12:28:27.674Z,21.03
2018-03-25T12:31:08.720Z,20.33
2018-03-25T12:33:35.020Z,21.27
2018-03-25T12:36:02.450Z,19.80
2018-03-25T12:38:29.412Z,22.20
2018-03-25T12:40:55.629Z,22.07
2018-03-25T12:43:22.678Z,24.63
2018-03-25T12:45:49.645Z,20.17
2018-03-25T12:48:15.882Z,21.77
2018-03-25T12:50:42.116Z,81.00
2018-03-25T12:53:08.342Z,21.53
2018-03-25T12:55:34.922Z,19.90
2018-03-25T12:58:01.152Z,22.10
2018-03-25T13:00:27.472Z,21.10
2018-03-25T13:02:53.710Z,24.43
2018-03-25T13:05:19.926Z,21.67
2018-03-25T13:07:46.213Z,23.77
2018-03-25T13:10:12.442Z,21.63
2018-03-25T13:12:38.694Z,21.83
2018-03-25T13:15:04.941Z,22.67
2018-03-25T13:17:31.186Z,19.60
2018-03-25T13:19:57.423Z,22.50
2018-03-25T13:22:23.668Z,20.40
2018-03-25T13:24:49.893Z,21.97
2018-03-25T13:27:16.864Z,21.33
2018-03-25T13:29:43.118Z,24.20
2018-03-25T13:32:09.444Z,27.07
2018-03-25T13:34:35.699Z,21.60
2018-03-25T13:37:02.050Z,23.07
2018-03-25T13:39:28.377Z,26.73
2018-03-25T13:41:54.630Z,22.00
2018-03-25T13:44:21.606Z,26.93
2018-03-25T13:46:47.905Z,21.80
2018-03-25T13:49:14.924Z,21.90
2018-03-25T13:51:41.179Z,20.47
2018-03-25T13:54:07.531Z,21.67
2018-03-25T13:56:33.766Z,19.47
2018-03-25T13:59:00.464Z,21.53
2018-03-25T14:01:27.551Z,22.00
2018-03-25T14:03:53.903Z,19.33
2018-03-25T14:06:20.129Z,24.00
2018-03-25T14:08:46.378Z,23.27
2018-03-25T14:11:12.632Z,22.27
2018-03-25T14:13:38.965Z,23.10
2018-03-25T14:16:05.297Z,20.20
2018-03-25T14:18:31.507Z,26.80
2018-03-25T14:20:57.718Z,25.87
2018-03-25T14:23:23.966Z,23.00
2018-03-25T14:25:50.305Z,20.17
2018-03-25T14:28:16.526Z,24.13
2018-03-25T14:30:42.912Z,20.90
2018-03-25T14:33:09.112Z,25.80
2018-03-25T14:35:36.198Z,22.20
2018-03-25T14:38:02.489Z,21.03
2018-03-25T14:40:29.069Z,22.87
2018-03-25T14:42:55.306Z,23.17
2018-03-25T14:45:21.740Z,24.40
2018-03-25T14:47:47.981Z,30.33
2018-03-25T14:50:14.210Z,26.77
2018-03-25T14:52:40.629Z,21.70
2018-03-25T14:55:06.934Z,23.73
2018-03-25T14:57:33.226Z,24.10
2018-03-25T14:59:59.633Z,21.53
2018-03-25T15:02:25.858Z,24.97
2018-03-25T15:04:52.130Z,24.30
2018-03-25T15:07:18.408Z,22.17
2018-03-25T15:09:44.664Z,24.13
2018-03-25T15:12:11.015Z,24.40
2018-03-25T15:14:37.310Z,23.40
2018-03-25T15:17:03.582Z,27.00
2018-03-25T15:19:30.644Z,24.27
2018-03-25T15:21:57.858Z,24.27
2018-03-25T15:24:24.282Z,23.63
2018-03-25T15:26:51.307Z,24.43
2018-03-25T15:29:17.525Z,23.10
2018-03-25T15:31:43.866Z,24.37
2018-03-25T15:34:10.129Z,28.77
2018-03-25T15:36:36.498Z,25.27
2018-03-25T15:39:02.857Z,23.07
2018-03-25T15:41:29.152Z,25.00
2018-03-25T15:43:56.282Z,25.53
2018-03-25T15:46:22.532Z,24.60
2018-03-25T15:48:50.277Z,23.70
2018-03-25T15:51:16.493Z,28.27
2018-03-25T15:53:42.818Z,27.40
2018-03-25T15:56:09.554Z,26.80
2018-03-25T15:58:35.789Z,25.63
2018-03-25T16:01:02.162Z,26.03
2018-03-25T16:03:29.104Z,26.83
2018-03-25T16:05:56.155Z,26.80
2018-03-25T16:08:23.229Z,25.00
2018-03-25T16:10:49.825Z,24.40
2018-03-25T16:13:16.213Z,25.90
2018-03-25T16:15:42.484Z,25.30
2018-03-25T16:18:09.393Z,26.23
2018-03-25T16:20:36.737Z,25.33
2018-03-25T16:23:03.094Z,24.87
2018-03-25T16:25:29.405Z,28.27
2018-03-25T16:27:55.728Z,26.03
2018-03-25T16:30:21.943Z,28.00
2018-03-25T16:32:50.297Z,23.30
2018-03-25T16:35:16.529Z,27.77
2018-03-25T16:37:42.768Z,28.00
2018-03-25T16:40:10.622Z,25.53
2018-03-25T16:42:36.851Z,27.70
2018-03-25T16:45:03.123Z,26.90
2018-03-25T16:47:29.443Z,25.87
2018-03-25T16:49:55.722Z,27.67
2018-03-25T16:52:21.988Z,25.20
2018-03-25T16:54:48.227Z,26.10
2018-03-25T16:57:15.341Z,29.30
2018-03-25T16:59:41.550Z,26.17
2018-03-25T17:02:08.325Z,27.40
2018-03-25T17:04:35.438Z,28.43
2018-03-25T17:07:01.686Z,28.30
2018-03-25T17:09:27.901Z,27.80
2018-03-25T17:11:54.278Z,29.63
2018-03-25T17:14:21.755Z,29.67
2018-03-25T17:16:48.063Z,29.67
2018-03-25T17:19:16.266Z,32.17
2018-03-25T17:21:42.556Z,26.33
2018-03-25T17:24:08.871Z,32.60
2018-03-25T17:26:35.116Z,29.70
2018-03-25T17:29:01.358Z,30.33
2018-03-25T17:31:28.438Z,32.50
2018-03-25T17:33:54.795Z,32.10
2018-03-25T17:36:21.237Z,32.23
2018-03-25T17:38:47.520Z,32.10
2018-03-25T17:41:13.732Z,33.30
2018-03-25T17:43:40.805Z,28.23
2018-03-25T17:46:07.218Z,28.87
2018-03-25T17:48:34.315Z,32.20
2018-03-25T17:51:00.614Z,30.17
2018-03-25T17:53:26.884Z,32.60
2018-03-25T17:55:53.144Z,30.40
2018-03-25T17:58:19.549Z,29.83
2018-03-25T18:00:46.222Z,33.33
2018-03-25T18:03:12.484Z,30.50
2018-03-25T18:05:38.965Z,29.50
2018-03-25T18:08:05.359Z,31.90
2018-03-25T18:10:31.732Z,30.73
2018-03-25T18:12:58.203Z,33.33
2018-03-25T18:15:26.812Z,34.67
2018-03-25T18:17:54.118Z,35.40
2018-03-25T18:20:20.482Z,32.80
2018-03-25T18:22:47.054Z,33.30
2018-03-25T18:25:13.430Z,32.37
2018-03-25T18:27:40.418Z,31.43
2018-03-25T18:30:06.699Z,32.27
2018-03-25T18:32:32.917Z,31.40
2018-03-25T18:34:59.159Z,34.70
2018-03-25T18:37:25.355Z,38.13
2018-03-25T18:39:51.699Z,31.30
2018-03-25T18:42:18.138Z,33.83
2018-03-25T18:44:44.390Z,38.50
2018-03-25T18:47:11.739Z,36.70
2018-03-25T18:49:38.731Z,35.00
2018-03-25T18:52:04.961Z,34.90
2018-03-25T18:54:31.332Z,43.80
2018-03-25T18:56:57.713Z,37.30
2018-03-25T18:59:24.041Z,38.87
2018-03-25T19:01:50.253Z,40.43
2018-03-25T19:04:17.295Z,38.40
2018-03-25T19:06:44.268Z,41.37
2018-03-25T19:09:10.488Z,34.80
2018-03-25T19:11:37.644Z,37.07
2018-03-25T19:14:03.894Z,41.53
2018-03-25T19:16:30.115Z,40.27
2018-03-25T19:18:56.420Z,41.80
2018-03-25T19:21:23.407Z,43.13
2018-03-25T19:23:49.658Z,43.77
2018-03-25T19:26:15.934Z,44.37
2018-03-25T19:28:42.283Z,43.70
2018-03-25T19:31:08.660Z,49.03
2018-03-25T19:33:34.863Z,43.10
2018-03-25T19:36:02.621Z,47.60
2018-03-25T19:38:28.842Z,44.17
2018-03-25T19:40:55.123Z,45.07
2018-03-25T19:43:21.334Z,49.27
2018-03-25T19:45:47.583Z,54.00
2018-03-25T19:48:14.557Z,51.77
2018-03-25T19:50:40.861Z,48.63
2018-03-25T19:53:07.100Z,54.07
2018-03-25T19:55:34.133Z,52.40
2018-03-25T19:58:00.339Z,52.07
2018-03-25T20:00:26.630Z,57.60
2018-03-25T20:02:52.871Z,54.97
2018-03-25T20:05:19.313Z,56.93
2018-03-25T20:07:45.537Z,63.40
2018-03-25T20:10:11.845Z,51.13
2018-03-25T20:12:38.072Z,59.90
2018-03-25T20:15:04.326Z,59.73
2018-03-25T20:17:30.688Z,55.73
2018-03-25T20:19:56.907Z,60.63
2018-03-25T20:22:23.136Z,62.70
2018-03-25T20:24:49.422Z,61.93
2018-03-25T20:27:16.435Z,66.83
2018-03-25T20:29:42.668Z,67.23
2018-03-25T20:32:08.865Z,68.80
2018-03-25T20:34:35.227Z,65.37
2018-03-25T20:37:01.461Z,76.03
2018-03-25T20:39:27.906Z,72.57
2018-03-25T20:41:54.975Z,77.20
2018-03-25T20:44:21.290Z,74.67
2018-03-25T20:46:48.278Z,74.27
2018-03-25T20:49:14.849Z,76.17
2018-03-25T20:51:41.071Z,78.13
2018-03-25T20:54:07.321Z,79.00
2018-03-25T20:56:33.607Z,74.67
2018-03-25T20:58:59.845Z,75.00
2018-03-25T21:01:26.076Z,80.93
2018-03-25T21:03:52.308Z,76.70
2018-03-25T21:06:18.513Z,75.93
2018-03-25T21:08:44.853Z,87.10
2018-03-25T21:11:18.208Z,83.80
2018-03-25T21:13:45.414Z,77.63
2018-03-25T21:16:11.618Z,77.07
2018-03-25T21:18:37.875Z,87.90
2018-03-25T21:21:04.288Z,84.40
2018-03-25T21:23:30.511Z,84.20
2018-03-25T21:25:56.713Z,80.37
2018-03-25T21:28:22.988Z,88.53
2018-03-25T21:30:49.298Z,84.37
2018-03-25T21:33:15.522Z,80.30
2018-03-25T21:35:41.786Z,82.67
2018-03-25T21:38:08.738Z,89.33
2018-03-25T21:40:34.976Z,80.47
2018-03-25T21:43:01.224Z,73.73
2018-03-25T21:45:28.203Z,89.17
2018-03-25T21:47:54.427Z,82.87
2018-03-25T21:50:20.697Z,85.53
2018-03-25T21:52:46.910Z,77.97
2018-03-25T21:55:13.154Z,89.27
2018-03-25T21:57:39.370Z,86.90
2018-03-25T22:00:05.648Z,88.40
2018-03-25T22:02:32.602Z,78.97
2018-03-25T22:04:59.590Z,81.63
2018-03-25T22:07:26.047Z,86.10
2018-03-25T22:09:52.402Z,90.23
2018-03-25T22:12:19.357Z,84.77
2018-03-25T22:14:46.318Z,91.47
2018-03-25T22:17:12.553Z,85.93
2018-03-25T22:19:38.775Z,89.20
2018-03-25T22:22:05.366Z,77.77
2018-03-25T22:24:31.586Z,87.00
2018-03-25T22:26:57.940Z,87.93
2018-03-25T22:29:24.197Z,81.77
2018-03-25T22:31:50.455Z,95.80
2018-03-25T22:34:16.710Z,82.80
2018-03-25T22:36:42.933Z,90.97
2018-03-25T22:39:09.208Z,78.93
2018-03-25T22:41:36.212Z,79.60
2018-03-25T22:44:02.454Z,88.63
2018-03-25T22:46:28.691Z,87.57
2018-03-25T22:48:54.913Z,86.17
2018-03-25T22:51:21.279Z,80.67
2018-03-25T22:53:48.240Z,79.50
2018-03-25T22:56:14.475Z,79.00
2018-03-25T22:58:40.737Z,80.30
2018-03-25T23:01:06.972Z,82.30
2018-03-25T23:03:33.229Z,84.63
2018-03-25T23:06:00.208Z,79.67
2018-03-25T23:08:26.559Z,87.87
2018-03-25T23:10:52.785Z,88.63
2018-03-25T23:13:19.222Z,91.03
2018-03-25T23:15:45.427Z,85.93
2018-03-25T23:18:11.699Z,90.63
2018-03-25T23:20:37.960Z,97.47
2018-03-25T23:23:04.905Z,86.80
2018-03-25T23:25:31.906Z,83.40
2018-03-25T23:27:58.123Z,85.43
2018-03-25T23:30:24.450Z,87.83
2018-03-25T23:32:50.743Z,97.97
2018-03-25T23:35:17.002Z,91.17
2018-03-25T23:40:35.170Z,72.90
2018-03-25T23:43:01.420Z,69.63
2018-03-25T23:45:27.636Z,83.93
2018-03-25T23:47:53.872Z,78.20
2018-03-25T23:50:20.082Z,72.53
2018-03-25T23:52:46.303Z,68.67
2018-03-25T23:55:12.538Z,66.63
2018-03-25T23:57:38.760Z,81.53
